Time;durP1;ratioP1;P1;durP2;ratioP2;P2;SDS_P1;SDS_P2;PMS_P1;PMS_P2;Temp;Humidity;BMP_temperature;BMP_pressure;BME280_temperature;BME280_humidity;BME280_pressure;Samples;Min_cycle;Max_cycle;Signal;HPM_P1;HPM_P2
2024/01/31 00:01:36;;;;;;;0.70;0.70;;;;;;;;;;5039152;28;20182;-85
2024/01/31 00:04:02;;;;;;;0.80;0.80;;;;;;;;;;5038092;28;20184;-86
2024/01/31 00:06:28;;;;;;;0.60;0.60;;;;;;;;;;5037274;28;20230;-86
2024/01/31 00:08:56;;;;;;;0.70;0.70;;;;;;;;;;5038150;28;20306;-87
2024/01/31 00:11:22;;;;;;;0.70;0.70;;;;;;;;;;5039975;28;20347;-87
2024/01/31 00:13:48;;;;;;;0.80;0.80;;;;;;;;;;5042042;28;20183;-86
2024/01/31 00:16:14;;;;;;;0.63;0.63;;;;;;;;;;5024763;28;20302;-86
2024/01/31 00:18:41;;;;;;;0.70;0.70;;;;;;;;;;5025053;28;20168;-86
2024/01/31 00:21:07;;;;;;;0.70;0.70;;;;;;;;;;5027615;28;20188;-86
2024/01/31 00:23:33;;;;;;;0.80;0.80;;;;;;;;;;5024889;28;20185;-86
2024/01/31 00:25:59;;;;;;;0.70;0.70;;;;;;;;;;5022607;28;20181;-86
2024/01/31 00:28:25;;;;;;;0.77;0.77;;;;;;;;;;5024761;28;20188;-86
2024/01/31 00:30:51;;;;;;;0.70;0.70;;;;;;;;;;5025614;28;20649;-86
2024/01/31 00:33:17;;;;;;;0.70;0.70;;;;;;;;;;5023855;28;20180;-86
2024/01/31 00:35:43;;;;;;;0.70;0.70;;;;;;;;;;5024498;28;20658;-86
2024/01/31 00:38:09;;;;;;;0.60;0.60;;;;;;;;;;5033566;28;20200;-86
2024/01/31 00:40:35;;;;;;;0.77;0.77;;;;;;;;;;5046495;28;20179;-86
2024/01/31 00:43:01;;;;;;;0.70;0.70;;;;;;;;;;5044841;28;20206;-86
2024/01/31 00:45:28;;;;;;;0.67;0.67;;;;;;;;;;5044172;28;20175;-87
2024/01/31 00:47:54;;;;;;;0.60;0.60;;;;;;;;;;5045303;28;20225;-87
2024/01/31 00:50:20;;;;;;;0.60;0.60;;;;;;;;;;5044344;28;20195;-86
2024/01/31 00:52:46;;;;;;;0.80;0.80;;;;;;;;;;5054488;28;20544;-87
2024/01/31 00:55:12;;;;;;;0.73;0.73;;;;;;;;;;5052081;28;20183;-86
2024/01/31 00:57:38;;;;;;;0.70;0.70;;;;;;;;;;5049716;28;20211;-86
2024/01/31 01:00:05;;;;;;;0.80;0.80;;;;;;;;;;5057298;28;20191;-86
2024/01/31 01:02:31;;;;;;;0.70;0.70;;;;;;;;;;5051021;28;20214;-88
2024/01/31 01:04:57;;;;;;;0.70;0.70;;;;;;;;;;5053761;28;20192;-86
2024/01/31 01:07:23;;;;;;;0.80;0.80;;;;;;;;;;5056708;28;20267;-87
2024/01/31 01:09:49;;;;;;;0.60;0.60;;;;;;;;;;5054830;28;20279;-86
2024/01/31 01:12:15;;;;;;;0.73;0.73;;;;;;;;;;5038771;28;20172;-85
2024/01/31 01:14:41;;;;;;;0.80;0.80;;;;;;;;;;5021814;28;20184;-85
2024/01/31 01:17:07;;;;;;;0.70;0.70;;;;;;;;;;5024628;28;20231;-86
2024/01/31 01:19:33;;;;;;;0.70;0.70;;;;;;;;;;5025108;28;20234;-86
2024/01/31 01:22:00;;;;;;;0.70;0.70;;;;;;;;;;5025632;28;20252;-86
2024/01/31 01:24:26;;;;;;;0.80;0.80;;;;;;;;;;5024304;28;20718;-86
2024/01/31 01:26:52;;;;;;;0.70;0.70;;;;;;;;;;5026467;28;20197;-86
2024/01/31 01:29:18;;;;;;;0.70;0.70;;;;;;;;;;5033703;28;20168;-86
2024/01/31 01:31:44;;;;;;;0.80;0.80;;;;;;;;;;5033735;28;20184;-86
2024/01/31 01:34:12;;;;;;;0.60;0.60;;;;;;;;;;5028470;28;20637;-86
2024/01/31 01:36:38;;;;;;;0.63;0.63;;;;;;;;;;5027094;28;20212;-86
2024/01/31 01:39:04;;;;;;;0.80;0.80;;;;;;;;;;5036912;28;20219;-87
2024/01/31 01:41:30;;;;;;;0.73;0.73;;;;;;;;;;5036606;28;20248;-87
2024/01/31 01:43:56;;;;;;;0.60;0.60;;;;;;;;;;5026205;28;20187;-86
2024/01/31 01:46:23;;;;;;;0.60;0.60;;;;;;;;;;5025452;28;20211;-86
2024/01/31 01:48:50;;;;;;;0.83;0.83;;;;;;;;;;5025634;28;20180;-86
2024/01/31 01:51:17;;;;;;;0.80;0.80;;;;;;;;;;5025938;28;20181;-86
2024/01/31 01:53:45;;;;;;;0.70;0.70;;;;;;;;;;5024602;28;20176;-86
2024/01/31 01:56:13;;;;;;;0.70;0.70;;;;;;;;;;5023133;28;20583;-88
2024/01/31 01:58:40;;;;;;;0.70;0.70;;;;;;;;;;5030404;28;20236;-87
2024/01/31 02:01:07;;;;;;;0.80;0.80;;;;;;;;;;5026354;28;20188;-86
2024/01/31 02:03:33;;;;;;;0.70;0.70;;;;;;;;;;5021529;28;20255;-86
2024/01/31 02:06:03;;;;;;;0.70;0.70;;;;;;;;;;5021377;28;20549;-86
2024/01/31 02:08:30;;;;;;;0.77;0.77;;;;;;;;;;5023941;28;20650;-87
2024/01/31 02:10:56;;;;;;;0.80;0.80;;;;;;;;;;5024537;28;20188;-87
2024/01/31 02:13:23;;;;;;;0.60;0.60;;;;;;;;;;5024553;28;20176;-86
2024/01/31 02:15:52;;;;;;;0.73;0.73;;;;;;;;;;5025545;28;20260;-86
2024/01/31 02:18:19;;;;;;;0.63;0.63;;;;;;;;;;5020525;28;20200;-87
2024/01/31 02:20:45;;;;;;;0.80;0.80;;;;;;;;;;5020638;28;20231;-87
2024/01/31 02:23:11;;;;;;;0.73;0.73;;;;;;;;;;5022364;28;20184;-87
2024/01/31 02:25:37;;;;;;;0.80;0.80;;;;;;;;;;5023613;28;20183;-86
2024/01/31 02:28:03;;;;;;;0.80;0.80;;;;;;;;;;5026161;28;20200;-86
2024/01/31 02:30:29;;;;;;;0.60;0.60;;;;;;;;;;5027320;28;20207;-85
2024/01/31 02:32:56;;;;;;;0.70;0.70;;;;;;;;;;5029345;28;20250;-86
2024/01/31 02:35:22;;;;;;;0.70;0.70;;;;;;;;;;5026819;28;20177;-86
2024/01/31 02:37:48;;;;;;;0.60;0.60;;;;;;;;;;5028241;28;20197;-85
2024/01/31 02:40:15;;;;;;;0.60;0.60;;;;;;;;;;5028736;28;20176;-86
2024/01/31 02:42:41;;;;;;;0.73;0.73;;;;;;;;;;5028192;28;20177;-86
2024/01/31 02:45:07;;;;;;;0.67;0.67;;;;;;;;;;5028884;28;20199;-86
2024/01/31 02:47:33;;;;;;;0.73;0.73;;;;;;;;;;5028604;28;20200;-86
2024/01/31 02:50:00;;;;;;;0.77;0.77;;;;;;;;;;5026219;28;20627;-87
2024/01/31 02:52:26;;;;;;;0.70;0.70;;;;;;;;;;5026424;28;20184;-87
2024/01/31 02:54:52;;;;;;;0.80;0.80;;;;;;;;;;5023875;28;20244;-86
2024/01/31 02:57:19;;;;;;;0.63;0.63;;;;;;;;;;5024763;28;20232;-86
2024/01/31 02:59:45;;;;;;;0.80;0.80;;;;;;;;;;5033868;28;20188;-88
2024/01/31 03:02:11;;;;;;;0.60;0.60;;;;;;;;;;5040467;28;20172;-88
2024/01/31 03:04:37;;;;;;;0.80;0.80;;;;;;;;;;5039881;28;20172;-86
2024/01/31 03:07:03;;;;;;;0.80;0.80;;;;;;;;;;5024573;28;20204;-87
2024/01/31 03:09:29;;;;;;;0.80;0.80;;;;;;;;;;5017238;28;20195;-86
2024/01/31 03:11:55;;;;;;;0.60;0.60;;;;;;;;;;5019125;28;20184;-86
2024/01/31 03:14:20;;;;;;;0.70;0.70;;;;;;;;;;5022998;28;20244;-86
2024/01/31 03:16:46;;;;;;;0.70;0.70;;;;;;;;;;5023804;28;20208;-86
2024/01/31 03:19:13;;;;;;;0.70;0.70;;;;;;;;;;5022927;28;20275;-86
2024/01/31 03:21:39;;;;;;;0.70;0.70;;;;;;;;;;5023613;28;20185;-86
2024/01/31 03:24:05;;;;;;;0.60;0.60;;;;;;;;;;5023615;28;20212;-87
2024/01/31 03:26:31;;;;;;;0.70;0.70;;;;;;;;;;5022955;28;20227;-86
2024/01/31 03:29:01;;;;;;;0.70;0.70;;;;;;;;;;5023797;28;20753;-86
2024/01/31 03:31:27;;;;;;;0.80;0.80;;;;;;;;;;5024379;28;20256;-86
2024/01/31 03:33:53;;;;;;;0.60;0.60;;;;;;;;;;5024381;28;20173;-86
2024/01/31 03:36:19;;;;;;;0.70;0.70;;;;;;;;;;5021899;28;20247;-86
2024/01/31 03:38:45;;;;;;;0.70;0.70;;;;;;;;;;5025417;28;20181;-86
2024/01/31 03:41:11;;;;;;;0.80;0.80;;;;;;;;;;5027197;28;20215;-85
2024/01/31 03:43:37;;;;;;;0.80;0.80;;;;;;;;;;5039072;28;20294;-87
2024/01/31 03:46:06;;;;;;;0.70;0.70;;;;;;;;;;5038703;28;20193;-87
2024/01/31 03:48:32;;;;;;;0.70;0.70;;;;;;;;;;5038609;28;20188;-87
2024/01/31 03:50:58;;;;;;;0.70;0.70;;;;;;;;;;5027141;28;20270;-86
2024/01/31 03:53:27;;;;;;;0.80;0.80;;;;;;;;;;5022274;28;20180;-86
2024/01/31 03:55:53;;;;;;;0.70;0.70;;;;;;;;;;5023261;28;20196;-86
2024/01/31 03:58:19;;;;;;;0.70;0.70;;;;;;;;;;5020528;28;20200;-86
2024/01/31 04:00:46;;;;;;;0.80;0.80;;;;;;;;;;5022605;28;20180;-86
2024/01/31 04:03:12;;;;;;;0.80;0.80;;;;;;;;;;5019203;28;20665;-87
2024/01/31 04:05:38;;;;;;;0.80;0.80;;;;;;;;;;5018538;28;20192;-86
2024/01/31 04:08:07;;;;;;;0.70;0.70;;;;;;;;;;5019587;28;20204;-87
2024/01/31 04:10:33;;;;;;;0.70;0.70;;;;;;;;;;5020415;28;20185;-86
2024/01/31 04:13:00;;;;;;;0.67;0.67;;;;;;;;;;5020779;28;20165;-86
2024/01/31 04:15:26;;;;;;;0.70;0.70;;;;;;;;;;5025823;28;20177;-86
2024/01/31 04:17:53;;;;;;;0.80;0.80;;;;;;;;;;5033064;28;20230;-86
2024/01/31 04:20:19;;;;;;;0.70;0.70;;;;;;;;;;5036683;28;20188;-86
2024/01/31 04:22:44;;;;;;;0.80;0.80;;;;;;;;;;5037710;28;20183;-86
2024/01/31 04:25:10;;;;;;;0.70;0.70;;;;;;;;;;5037657;28;20192;-86
2024/01/31 04:27:36;;;;;;;0.80;0.80;;;;;;;;;;5037585;28;20204;-86
2024/01/31 04:30:02;;;;;;;0.70;0.70;;;;;;;;;;5037277;28;20256;-86
2024/01/31 04:32:28;;;;;;;0.70;0.70;;;;;;;;;;5037324;28;20176;-86
2024/01/31 04:34:55;;;;;;;0.70;0.70;;;;;;;;;;5036247;28;20206;-86
2024/01/31 04:37:21;;;;;;;0.80;0.80;;;;;;;;;;5036032;28;20220;-86
2024/01/31 04:39:50;;;;;;;0.73;0.73;;;;;;;;;;5036291;28;20191;-86
2024/01/31 04:42:16;;;;;;;0.73;0.73;;;;;;;;;;5036929;28;20220;-86
2024/01/31 04:44:45;;;;;;;0.70;0.70;;;;;;;;;;5036178;28;20219;-86
2024/01/31 04:47:11;;;;;;;0.77;0.77;;;;;;;;;;5036720;28;20207;-86
2024/01/31 04:49:37;;;;;;;0.70;0.70;;;;;;;;;;5036508;28;20180;-86
2024/01/31 04:52:03;;;;;;;0.70;0.70;;;;;;;;;;5036860;28;20184;-86
2024/01/31 04:54:29;;;;;;;0.70;0.70;;;;;;;;;;5037630;28;20241;-86
2024/01/31 04:56:56;;;;;;;0.77;0.77;;;;;;;;;;5036193;28;20211;-86
2024/01/31 04:59:22;;;;;;;0.80;0.80;;;;;;;;;;5034954;28;20177;-86
2024/01/31 05:01:48;;;;;;;0.80;0.80;;;;;;;;;;5035464;28;20192;-86
2024/01/31 05:04:14;;;;;;;0.70;0.70;;;;;;;;;;5035344;28;20192;-86
2024/01/31 05:06:40;;;;;;;0.70;0.70;;;;;;;;;;5035527;28;20188;-86
2024/01/31 05:09:08;;;;;;;0.70;0.70;;;;;;;;;;5035381;28;20176;-86
2024/01/31 05:11:34;;;;;;;0.80;0.80;;;;;;;;;;5034842;28;20207;-87
2024/01/31 05:14:00;;;;;;;0.80;0.80;;;;;;;;;;5025360;28;20817;-86
2024/01/31 05:16:26;;;;;;;0.60;0.60;;;;;;;;;;5021420;28;20236;-86
2024/01/31 05:18:52;;;;;;;0.70;0.70;;;;;;;;;;5021228;28;20191;-86
2024/01/31 05:21:18;;;;;;;0.70;0.70;;;;;;;;;;5021358;28;20184;-86
2024/01/31 05:23:44;;;;;;;0.70;0.70;;;;;;;;;;5020933;28;20546;-86
2024/01/31 05:26:10;;;;;;;0.67;0.67;;;;;;;;;;5018111;28;20200;-86
2024/01/31 05:28:37;;;;;;;0.70;0.70;;;;;;;;;;5015654;28;20234;-86
2024/01/31 05:31:03;;;;;;;0.73;0.73;;;;;;;;;;5015825;28;20195;-86
2024/01/31 05:33:29;;;;;;;0.70;0.70;;;;;;;;;;5015844;28;20634;-86
2024/01/31 05:35:57;;;;;;;0.60;0.60;;;;;;;;;;5015193;28;20678;-87
2024/01/31 05:38:23;;;;;;;0.80;0.80;;;;;;;;;;5015261;28;20184;-86
2024/01/31 05:40:49;;;;;;;0.63;0.63;;;;;;;;;;5016391;28;20191;-86
2024/01/31 05:43:17;;;;;;;0.67;0.67;;;;;;;;;;5014311;28;20203;-86
2024/01/31 05:45:44;;;;;;;0.60;0.60;;;;;;;;;;5015751;28;20200;-87
2024/01/31 05:48:09;;;;;;;0.60;0.60;;;;;;;;;;5024007;28;20192;-86
2024/01/31 05:50:35;;;;;;;0.60;0.60;;;;;;;;;;5031574;28;20184;-86
2024/01/31 05:53:02;;;;;;;0.67;0.67;;;;;;;;;;5036262;28;20180;-88
2024/01/31 05:55:28;;;;;;;0.60;0.60;;;;;;;;;;5035470;28;20195;-86
2024/01/31 05:57:54;;;;;;;0.70;0.70;;;;;;;;;;5034554;28;20197;-87
2024/01/31 06:00:20;;;;;;;0.73;0.73;;;;;;;;;;5034357;28;20164;-87
2024/01/31 06:02:46;;;;;;;0.70;0.70;;;;;;;;;;5026865;28;20700;-87
2024/01/31 06:05:12;;;;;;;0.80;0.80;;;;;;;;;;5016219;28;20176;-87
2024/01/31 06:07:39;;;;;;;0.70;0.70;;;;;;;;;;5015049;28;20239;-86
2024/01/31 06:10:05;;;;;;;0.70;0.70;;;;;;;;;;5015456;28;20173;-86
2024/01/31 06:12:31;;;;;;;0.70;0.70;;;;;;;;;;5017783;28;20184;-87
2024/01/31 06:14:57;;;;;;;0.77;0.77;;;;;;;;;;5015122;28;20180;-86
2024/01/31 06:17:23;;;;;;;0.70;0.70;;;;;;;;;;5023714;28;20209;-86
2024/01/31 06:19:49;;;;;;;0.70;0.70;;;;;;;;;;5016830;28;20178;-87
2024/01/31 06:22:15;;;;;;;0.80;0.80;;;;;;;;;;5017023;28;20165;-87
2024/01/31 06:24:41;;;;;;;0.63;0.63;;;;;;;;;;5016306;28;20249;-87
2024/01/31 06:27:07;;;;;;;0.70;0.70;;;;;;;;;;5016642;28;20185;-87
2024/01/31 06:29:33;;;;;;;0.60;0.60;;;;;;;;;;5004974;28;20220;-86
2024/01/31 06:32:00;;;;;;;0.60;0.60;;;;;;;;;;4994975;28;20193;-86
2024/01/31 06:34:26;;;;;;;0.60;0.60;;;;;;;;;;4995719;28;20276;-86
2024/01/31 06:36:52;;;;;;;0.73;0.73;;;;;;;;;;4993428;28;20274;-87
2024/01/31 06:39:19;;;;;;;0.63;0.63;;;;;;;;;;4994270;28;20180;-86
2024/01/31 06:41:45;;;;;;;0.70;0.70;;;;;;;;;;5002056;28;20277;-85
2024/01/31 06:44:11;;;;;;;0.67;0.67;;;;;;;;;;4998968;28;20189;-86
2024/01/31 06:46:38;;;;;;;0.70;0.70;;;;;;;;;;4999572;28;20280;-86
2024/01/31 06:49:04;;;;;;;0.63;0.63;;;;;;;;;;5010387;28;20188;-87
2024/01/31 06:51:30;;;;;;;0.60;0.60;;;;;;;;;;5021658;28;20180;-86
2024/01/31 06:53:58;;;;;;;0.70;0.70;;;;;;;;;;5015928;28;20245;-87
2024/01/31 06:56:24;;;;;;;0.60;0.60;;;;;;;;;;5015809;28;20208;-87
2024/01/31 06:58:54;;;;;;;0.87;0.87;;;;;;;;;;5007538;28;20177;-87
2024/01/31 07:01:20;;;;;;;0.77;0.77;;;;;;;;;;5004419;28;20189;-86
2024/01/31 07:03:47;;;;;;;0.73;0.73;;;;;;;;;;5010515;28;20256;-88
2024/01/31 07:06:13;;;;;;;0.70;0.70;;;;;;;;;;5031717;28;20200;-88
2024/01/31 07:08:39;;;;;;;0.70;0.70;;;;;;;;;;5031235;28;20184;-87
2024/01/31 07:11:07;;;;;;;0.80;0.80;;;;;;;;;;5016376;28;20184;-87
2024/01/31 07:13:33;;;;;;;0.70;0.70;;;;;;;;;;5008552;28;20681;-85
2024/01/31 07:15:59;;;;;;;0.80;0.80;;;;;;;;;;4997507;28;20201;-88
2024/01/31 07:18:25;;;;;;;0.80;0.80;;;;;;;;;;4998412;28;20557;-87
2024/01/31 07:20:51;;;;;;;0.73;0.73;;;;;;;;;;4998935;28;20253;-87
2024/01/31 07:23:17;;;;;;;0.80;0.80;;;;;;;;;;5011585;28;20177;-87
2024/01/31 07:25:43;;;;;;;0.70;0.70;;;;;;;;;;5024318;28;20161;-87
2024/01/31 07:28:09;;;;;;;0.70;0.70;;;;;;;;;;5015587;28;20291;-87
2024/01/31 07:30:35;;;;;;;0.67;0.67;;;;;;;;;;5003077;28;20189;-88
2024/01/31 07:33:02;;;;;;;0.80;0.80;;;;;;;;;;5008134;28;20179;-87
2024/01/31 07:35:28;;;;;;;0.70;0.70;;;;;;;;;;5018167;28;20673;-88
2024/01/31 07:37:54;;;;;;;0.70;0.70;;;;;;;;;;4995794;28;20316;-88
2024/01/31 07:40:20;;;;;;;0.60;0.60;;;;;;;;;;5002991;28;20594;-89
2024/01/31 07:42:46;;;;;;;0.70;0.70;;;;;;;;;;5004327;28;20180;-89
2024/01/31 07:45:12;;;;;;;0.70;0.70;;;;;;;;;;5004058;28;20550;-86
2024/01/31 07:47:39;;;;;;;0.60;0.60;;;;;;;;;;5011500;28;20208;-86
2024/01/31 07:50:05;;;;;;;0.70;0.70;;;;;;;;;;5008055;28;20191;-88
2024/01/31 07:52:31;;;;;;;0.70;0.70;;;;;;;;;;5007730;28;20644;-87
2024/01/31 07:55:00;;;;;;;0.80;0.80;;;;;;;;;;5020179;28;20196;-89
2024/01/31 07:57:26;;;;;;;0.77;0.77;;;;;;;;;;5017962;28;20220;-87
2024/01/31 07:59:55;;;;;;;0.60;0.60;;;;;;;;;;5019498;28;20199;-90
2024/01/31 08:02:22;;;;;;;0.90;0.90;;;;;;;;;;5019624;28;20192;-88
2024/01/31 08:04:48;;;;;;;0.80;0.80;;;;;;;;;;5019981;28;20181;-87
2024/01/31 08:07:14;;;;;;;0.70;0.70;;;;;;;;;;5023781;28;20215;-86
2024/01/31 08:09:40;;;;;;;0.57;0.57;;;;;;;;;;5016151;28;20518;-87
2024/01/31 08:12:07;;;;;;;0.70;0.70;;;;;;;;;;5017815;28;20172;-86
2024/01/31 08:14:33;;;;;;;0.70;0.70;;;;;;;;;;5009508;28;20172;-90
2024/01/31 08:16:59;;;;;;;0.70;0.70;;;;;;;;;;5015301;28;20307;-89
2024/01/31 08:19:25;;;;;;;0.60;0.60;;;;;;;;;;5023702;28;20168;-92
2024/01/31 08:21:52;;;;;;;0.70;0.70;;;;;;;;;;5021295;28;20192;-87
2024/01/31 08:24:18;;;;;;;0.70;0.70;;;;;;;;;;5018919;28;20183;-88
2024/01/31 08:26:44;;;;;;;0.70;0.70;;;;;;;;;;5015704;28;20200;-88
2024/01/31 08:29:11;;;;;;;0.60;0.60;;;;;;;;;;4998486;28;20686;-88
2024/01/31 08:31:36;;;;;;;0.70;0.70;;;;;;;;;;5022408;28;20308;-90
2024/01/31 08:34:03;;;;;;;0.70;0.70;;;;;;;;;;5035299;28;20172;-90
2024/01/31 08:36:29;;;;;;;0.70;0.70;;;;;;;;;;5037402;28;20200;-89
2024/01/31 08:38:55;;;;;;;0.60;0.60;;;;;;;;;;5023427;28;20250;-88
2024/01/31 08:41:21;;;;;;;0.70;0.70;;;;;;;;;;5015736;28;20176;-86
2024/01/31 08:43:47;;;;;;;0.70;0.70;;;;;;;;;;5001849;28;20172;-88
2024/01/31 08:46:13;;;;;;;0.80;0.80;;;;;;;;;;4997975;28;20205;-88
2024/01/31 08:48:40;;;;;;;0.70;0.70;;;;;;;;;;5018862;28;20209;-87
2024/01/31 08:51:07;;;;;;;0.60;0.60;;;;;;;;;;5017737;28;20245;-87
2024/01/31 08:53:33;;;;;;;0.70;0.70;;;;;;;;;;5028369;28;20157;-90
2024/01/31 08:55:59;;;;;;;0.60;0.60;;;;;;;;;;5017481;28;20228;-87
2024/01/31 08:58:25;;;;;;;0.60;0.60;;;;;;;;;;5001592;28;20185;-87
2024/01/31 09:00:51;;;;;;;0.60;0.60;;;;;;;;;;5016460;28;20219;-87
2024/01/31 09:03:17;;;;;;;0.70;0.70;;;;;;;;;;5023126;28;20240;-89
2024/01/31 09:05:44;;;;;;;0.70;0.70;;;;;;;;;;5012195;28;20211;-87
2024/01/31 09:08:10;;;;;;;0.67;0.67;;;;;;;;;;5016654;28;20247;-90
2024/01/31 09:10:36;;;;;;;0.60;0.60;;;;;;;;;;5012073;28;20276;-88
2024/01/31 09:13:02;;;;;;;0.70;0.70;;;;;;;;;;5005123;28;20220;-88
2024/01/31 09:15:29;;;;;;;0.60;0.60;;;;;;;;;;5017371;28;20169;-90
2024/01/31 09:17:55;;;;;;;0.80;0.80;;;;;;;;;;5016079;28;20228;-89
2024/01/31 09:20:21;;;;;;;0.73;0.73;;;;;;;;;;5026351;28;20184;-89
2024/01/31 09:22:47;;;;;;;0.80;0.80;;;;;;;;;;5016222;28;20169;-89
2024/01/31 09:25:15;;;;;;;0.60;0.60;;;;;;;;;;5003796;28;20185;-88
2024/01/31 09:27:41;;;;;;;0.80;0.80;;;;;;;;;;4998915;28;20201;-86
2024/01/31 09:30:08;;;;;;;0.70;0.70;;;;;;;;;;4996658;28;20606;-86
2024/01/31 09:32:35;;;;;;;0.60;0.60;;;;;;;;;;5000795;28;20226;-90
2024/01/31 09:35:01;;;;;;;0.77;0.77;;;;;;;;;;5000450;28;20185;-87
2024/01/31 09:37:27;;;;;;;0.70;0.70;;;;;;;;;;4997373;28;20209;-87
2024/01/31 09:39:56;;;;;;;0.80;0.80;;;;;;;;;;5000101;28;20177;-89
2024/01/31 09:42:22;;;;;;;0.60;0.60;;;;;;;;;;4996593;28;20197;-88
2024/01/31 09:44:51;;;;;;;0.70;0.70;;;;;;;;;;4999785;28;20181;-88
2024/01/31 09:47:17;;;;;;;0.60;0.60;;;;;;;;;;5002758;28;20235;-87
2024/01/31 09:49:43;;;;;;;0.83;0.83;;;;;;;;;;5010362;28;20177;-87
2024/01/31 09:52:12;;;;;;;0.70;0.70;;;;;;;;;;5016830;28;20177;-88
2024/01/31 09:54:39;;;;;;;0.70;0.70;;;;;;;;;;5022761;28;20203;-87
2024/01/31 09:57:07;;;;;;;0.77;0.77;;;;;;;;;;5012280;28;20227;-88
2024/01/31 09:59:33;;;;;;;0.70;0.70;;;;;;;;;;5017620;28;20172;-90
2024/01/31 10:01:59;;;;;;;0.70;0.70;;;;;;;;;;5033205;28;20172;-89
2024/01/31 10:04:25;;;;;;;0.70;0.70;;;;;;;;;;5031935;28;20157;-87
2024/01/31 10:06:51;;;;;;;0.70;0.70;;;;;;;;;;5020581;28;20223;-86
2024/01/31 10:09:18;;;;;;;0.70;0.70;;;;;;;;;;5020824;28;20168;-87
2024/01/31 10:11:50;;;;;;;0.60;0.60;;;;;;;;;;5018951;28;20177;-87
2024/01/31 10:14:16;;;;;;;0.60;0.60;;;;;;;;;;5026372;28;20164;-84
2024/01/31 10:16:42;;;;;;;0.70;0.70;;;;;;;;;;5020404;28;20275;-88
2024/01/31 10:19:08;;;;;;;0.70;0.70;;;;;;;;;;5022276;28;20208;-88
2024/01/31 10:21:34;;;;;;;0.70;0.70;;;;;;;;;;5012006;28;20667;-88
2024/01/31 10:24:01;;;;;;;0.70;0.70;;;;;;;;;;5014518;28;20185;-88
2024/01/31 10:26:27;;;;;;;0.70;0.70;;;;;;;;;;5015507;28;20228;-87
2024/01/31 10:28:53;;;;;;;0.63;0.63;;;;;;;;;;4999834;28;20216;-88
2024/01/31 10:31:20;;;;;;;0.80;0.80;;;;;;;;;;4999593;28;20205;-87
2024/01/31 10:33:46;;;;;;;0.70;0.70;;;;;;;;;;4999993;28;20197;-88
2024/01/31 10:36:13;;;;;;;0.70;0.70;;;;;;;;;;5013325;28;20244;-88
2024/01/31 10:38:39;;;;;;;0.60;0.60;;;;;;;;;;5013756;28;20194;-87
2024/01/31 10:41:09;;;;;;;0.70;0.70;;;;;;;;;;5010509;28;20208;-87
2024/01/31 10:43:36;;;;;;;0.73;0.73;;;;;;;;;;5006240;28;20185;-87
2024/01/31 10:46:02;;;;;;;0.70;0.70;;;;;;;;;;5020189;28;20180;-88
2024/01/31 10:48:28;;;;;;;0.50;0.50;;;;;;;;;;5026842;28;20255;-87
2024/01/31 10:50:56;;;;;;;0.60;0.60;;;;;;;;;;5029528;28;20195;-87
2024/01/31 10:53:26;;;;;;;0.60;0.60;;;;;;;;;;5039121;28;20179;-85
2024/01/31 10:55:52;;;;;;;0.60;0.60;;;;;;;;;;5038904;28;20168;-85
2024/01/31 10:58:21;;;;;;;0.60;0.60;;;;;;;;;;5038436;28;20212;-86
2024/01/31 11:00:47;;;;;;;0.60;0.60;;;;;;;;;;5037611;28;20195;-86
2024/01/31 11:03:13;;;;;;;0.50;0.50;;;;;;;;;;5026512;28;20176;-87
2024/01/31 11:05:39;;;;;;;0.60;0.60;;;;;;;;;;5025111;28;20195;-87
2024/01/31 11:08:06;;;;;;;0.50;0.50;;;;;;;;;;5016793;28;20647;-88
2024/01/31 11:10:33;;;;;;;0.50;0.50;;;;;;;;;;5015361;28;20642;-89
2024/01/31 11:13:06;;;;;;;0.70;0.70;;;;;;;;;;5014178;28;20246;-87
2024/01/31 11:15:34;;;;;;;0.60;0.60;;;;;;;;;;5029387;28;20164;-87
2024/01/31 11:18:09;;;;;;;0.63;0.63;;;;;;;;;;5015161;28;20239;-87
2024/01/31 11:20:36;;;;;;;0.60;0.60;;;;;;;;;;5015613;28;20230;-87
2024/01/31 11:23:05;;;;;;;0.60;0.60;;;;;;;;;;5014371;28;20211;-86
2024/01/31 11:25:33;;;;;;;0.60;0.60;;;;;;;;;;5015581;28;20240;-88
2024/01/31 11:28:04;;;;;;;0.50;0.50;;;;;;;;;;5014388;28;20209;-87
2024/01/31 11:30:31;;;;;;;0.60;0.60;;;;;;;;;;5016173;28;20172;-87
2024/01/31 11:32:57;;;;;;;0.50;0.50;;;;;;;;;;5015564;28;20662;-87
2024/01/31 11:35:25;;;;;;;0.50;0.50;;;;;;;;;;5018750;28;20175;-88
2024/01/31 11:37:52;;;;;;;0.50;0.50;;;;;;;;;;5008554;28;20220;-87
2024/01/31 11:40:21;;;;;;;0.60;0.60;;;;;;;;;;5023110;28;20185;-87
2024/01/31 11:42:47;;;;;;;0.50;0.50;;;;;;;;;;5038168;28;20180;-85
2024/01/31 11:45:14;;;;;;;0.60;0.60;;;;;;;;;;5034593;28;20658;-86
2024/01/31 11:47:40;;;;;;;0.50;0.50;;;;;;;;;;5036114;28;20207;-85
2024/01/31 11:50:07;;;;;;;0.60;0.60;;;;;;;;;;5035878;28;20248;-87
2024/01/31 11:52:33;;;;;;;0.63;0.63;;;;;;;;;;5038228;28;20204;-90
2024/01/31 11:55:00;;;;;;;0.60;0.60;;;;;;;;;;5038241;28;20180;-89
2024/01/31 11:57:26;;;;;;;0.70;0.70;;;;;;;;;;5018644;28;20240;-87
2024/01/31 11:59:54;;;;;;;0.60;0.60;;;;;;;;;;5019561;28;20184;-87
2024/01/31 12:02:21;;;;;;;0.60;0.60;;;;;;;;;;5007625;28;20201;-86
2024/01/31 12:04:56;;;;;;;0.50;0.50;;;;;;;;;;5007940;28;20314;-85
2024/01/31 12:07:22;;;;;;;0.60;0.60;;;;;;;;;;5010375;28;20218;-87
2024/01/31 12:09:49;;;;;;;0.57;0.57;;;;;;;;;;5020386;28;20185;-87
2024/01/31 12:12:15;;;;;;;0.60;0.60;;;;;;;;;;5027470;28;20211;-88
2024/01/31 12:14:41;;;;;;;0.50;0.50;;;;;;;;;;5023880;28;20212;-87
2024/01/31 12:17:23;;;;;;;0.40;0.40;;;;;;;;;;5023936;28;20706;-88
2024/01/31 12:19:50;;;;;;;0.60;0.60;;;;;;;;;;5033951;28;20188;-88
2024/01/31 12:22:17;;;;;;;0.60;0.60;;;;;;;;;;5028466;28;20588;-87
2024/01/31 12:24:43;;;;;;;0.60;0.60;;;;;;;;;;5025294;28;20183;-86
2024/01/31 12:27:09;;;;;;;0.67;0.67;;;;;;;;;;5022329;28;20219;-89
2024/01/31 12:29:36;;;;;;;0.50;0.50;;;;;;;;;;5027689;28;20176;-88
2024/01/31 12:32:02;;;;;;;0.50;0.50;;;;;;;;;;5030074;28;20180;-88
2024/01/31 12:34:28;;;;;;;0.50;0.50;;;;;;;;;;5034999;28;20448;-89
2024/01/31 12:36:54;;;;;;;0.53;0.53;;;;;;;;;;5035945;28;20224;-89
2024/01/31 12:39:20;;;;;;;0.60;0.60;;;;;;;;;;5019089;28;20191;-89
2024/01/31 12:41:50;;;;;;;0.53;0.53;;;;;;;;;;5018863;28;20529;-89
2024/01/31 12:44:16;;;;;;;0.50;0.50;;;;;;;;;;5022146;28;20175;-88
2024/01/31 12:46:42;;;;;;;0.73;0.73;;;;;;;;;;5024068;28;20200;-90
2024/01/31 12:49:09;;;;;;;0.60;0.60;;;;;;;;;;5023188;28;20184;-88
2024/01/31 12:51:35;;;;;;;0.70;0.70;;;;;;;;;;5029695;28;20164;-90
2024/01/31 12:54:01;;;;;;;0.60;0.60;;;;;;;;;;5030789;28;20183;-90
2024/01/31 12:56:30;;;;;;;0.50;0.50;;;;;;;;;;5035253;28;20275;-91
2024/01/31 12:58:57;;;;;;;0.60;0.60;;;;;;;;;;5035590;28;20189;-91
2024/01/31 13:01:23;;;;;;;0.50;0.50;;;;;;;;;;5027334;28;20324;-93
2024/01/31 13:03:49;;;;;;;0.50;0.50;;;;;;;;;;5038072;28;20189;-92
2024/01/31 13:06:15;;;;;;;0.50;0.50;;;;;;;;;;5031116;28;20196;-88
2024/01/31 13:08:41;;;;;;;0.47;0.47;;;;;;;;;;5016497;28;20264;-88
2024/01/31 13:11:09;;;;;;;0.50;0.50;;;;;;;;;;5005288;28;20318;-87
2024/01/31 13:13:40;;;;;;;0.50;0.50;;;;;;;;;;4996562;28;20188;-88
2024/01/31 13:16:06;;;;;;;0.47;0.47;;;;;;;;;;4998528;28;20567;-88
2024/01/31 13:18:32;;;;;;;0.60;0.60;;;;;;;;;;5013343;28;20261;-88
2024/01/31 13:20:58;;;;;;;0.60;0.60;;;;;;;;;;5014424;28;20221;-87
2024/01/31 13:23:24;;;;;;;0.60;0.60;;;;;;;;;;5002104;28;20192;-88
2024/01/31 13:25:50;;;;;;;0.50;0.50;;;;;;;;;;5009884;28;20227;-88
2024/01/31 13:28:16;;;;;;;0.60;0.60;;;;;;;;;;5030640;28;20181;-89
2024/01/31 13:30:43;;;;;;;0.50;0.50;;;;;;;;;;5015775;28;20653;-90
2024/01/31 13:33:09;;;;;;;0.40;0.40;;;;;;;;;;5021826;28;20184;-89
2024/01/31 13:35:35;;;;;;;0.50;0.50;;;;;;;;;;5021147;28;20172;-87
2024/01/31 13:38:01;;;;;;;0.50;0.50;;;;;;;;;;5017274;28;20583;-88
2024/01/31 13:40:27;;;;;;;0.50;0.50;;;;;;;;;;5019097;28;20188;-88
2024/01/31 13:42:53;;;;;;;0.60;0.60;;;;;;;;;;5018723;28;20680;-88
2024/01/31 13:45:19;;;;;;;0.57;0.57;;;;;;;;;;5018186;28;20220;-88
2024/01/31 13:47:45;;;;;;;0.50;0.50;;;;;;;;;;5006999;28;20674;-89
2024/01/31 13:50:11;;;;;;;0.40;0.40;;;;;;;;;;5019867;28;20195;-89
2024/01/31 13:52:38;;;;;;;0.40;0.40;;;;;;;;;;5025861;28;20168;-92
2024/01/31 13:55:04;;;;;;;0.50;0.50;;;;;;;;;;5031397;28;20181;-89
2024/01/31 13:57:30;;;;;;;0.70;0.70;;;;;;;;;;5022663;28;20216;-89
2024/01/31 13:59:56;;;;;;;0.50;0.50;;;;;;;;;;5022058;28;20219;-88
2024/01/31 14:02:23;;;;;;;0.50;0.50;;;;;;;;;;5035882;28;20195;-87
2024/01/31 14:04:49;;;;;;;0.57;0.57;;;;;;;;;;5020050;28;20177;-85
2024/01/31 14:07:15;;;;;;;0.53;0.53;;;;;;;;;;5007060;28;20252;-86
2024/01/31 14:09:41;;;;;;;0.50;0.50;;;;;;;;;;5005331;28;20181;-86
2024/01/31 14:12:07;;;;;;;0.60;0.60;;;;;;;;;;4998519;28;20181;-86
2024/01/31 14:14:33;;;;;;;0.60;0.60;;;;;;;;;;4996743;28;20285;-86
2024/01/31 14:17:00;;;;;;;0.60;0.60;;;;;;;;;;5008219;28;20296;-85
2024/01/31 14:19:29;;;;;;;0.60;0.60;;;;;;;;;;5009452;28;20647;-86
2024/01/31 14:21:55;;;;;;;0.60;0.60;;;;;;;;;;4996961;28;20189;-86
2024/01/31 14:24:21;;;;;;;0.40;0.40;;;;;;;;;;5009030;28;20212;-86
2024/01/31 14:26:47;;;;;;;0.60;0.60;;;;;;;;;;5039425;28;20196;-86
2024/01/31 14:29:14;;;;;;;0.70;0.70;;;;;;;;;;5035284;28;20195;-87
2024/01/31 14:31:43;;;;;;;0.60;0.60;;;;;;;;;;5018054;28;20220;-87
2024/01/31 14:34:10;;;;;;;0.60;0.60;;;;;;;;;;5009970;28;20193;-87
2024/01/31 14:36:41;;;;;;;0.60;0.60;;;;;;;;;;5021896;28;20274;-87
2024/01/31 14:39:08;;;;;;;0.47;0.47;;;;;;;;;;5028937;28;20199;-89